Главная страница
METAR-TAF:

METAR-TAF

Аэропорты :

Кингстон, Онтарио, Канада

широта: 44-13N, долгота: 076-36W, высота над уровнем моря: 93 м

Текущие метеонаблюдения

Эта сводка был подготовлена 1 час и 18 минут назад, в 11:00 UTC
Штиль
Температура 8°C
Влажность 100%
Давление 1024 hPa
Видимость: 24.1 км
небольшая облачность на высоте 12000 фута

METAR: CYGK 161100Z 00000KT 15SM FEW120 08/08 A3024 RMK AC1 SLP242

Время: 08:18 (12:18 UTC)

Прогноз

Эта сводка был подготовлена 40 минут назад, в 11:38 UTC
Прогноз действительный с 16-го 12 UTC до 16-го 24 UTC
Ветер 3 Узел переменных направлений
Видимость: 10 км
ясное небо
изменения
С 16-го 12 UTC до 16-го 14 UTC
Ветер 8 Узел от юго-восточный
С 16-го 1800 UTC
Ветер 12 Узел от юго-юго-восточный
Видимость: 10 км
Отдельные облака на высоте 5000 фута
изменения
С 16-го 22 UTC до 16-го 24 UTC
Ветер 6 Узел от южный

TAF: CYGK 161138Z 1612/1624 VRB03KT P6SM SKC BECMG 1612/1614 14008KT FM161800 16012KT P6SM SCT050 BECMG 1622/1624 18006KT RMK NXT FCST BY 161400Z

Метеонаблюдения и прогнозы для более 4000 аэропортов (сводки METAR и TAF).

Имеющиеся станции представлены на карте желтыми и красными точками.

Чтобы увидеть название станции, наведите на нее мышь.

Затем щелкните, чтобы увидеть метеонаблюдения и метеопрогнозы.

Управление картой: чтобы увеличить масштаб, щелкните зеленые кнопки с черным крестиком; чтобы уменьшить масштаб, щелкните зеленую кнопку с тире; для просмотра соседних карт щелкайте зеленые стрелки.


METAR-TAF: